Time;durP1;ratioP1;P1;durP2;ratioP2;P2;SDS_P1;SDS_P2;PMS_P1;PMS_P2;Temp;Humidity;BMP_temperature;BMP_pressure;BME280_temperature;BME280_humidity;BME280_pressure;Samples;Min_cycle;Max_cycle;Signal;HPM_P1;HPM_P2
2022/08/16 00:01:39;;;;;;;6.82;5.97;;;15.90;99.90;;;16.64;100.00;97299.81;5187606;28;20205;-77
2022/08/16 00:04:13;;;;;;;5.68;5.18;;;15.90;99.90;;;16.61;100.00;97299.75;5186768;28;20226;-77
2022/08/16 00:06:47;;;;;;;6.40;5.45;;;15.90;99.90;;;16.61;100.00;97297.16;5191716;28;20245;-77
2022/08/16 00:09:21;;;;;;;6.43;5.72;;;15.80;99.90;;;16.53;100.00;97294.38;5177706;28;20288;-77
2022/08/16 00:11:55;;;;;;;5.97;5.47;;;15.80;99.90;;;16.51;100.00;97297.75;5183480;28;20228;-77
2022/08/16 00:14:33;;;;;;;6.32;5.25;;;15.80;99.90;;;16.54;100.00;97295.25;5177224;28;20828;-77
2022/08/16 00:17:09;;;;;;;6.57;5.97;;;15.80;99.90;;;16.44;100.00;97291.59;5188076;28;20193;-77
2022/08/16 00:19:51;;;;;;;5.93;5.40;;;15.70;99.90;;;16.42;100.00;97299.31;5186892;28;20921;-77
2022/08/16 00:22:27;;;;;;;5.82;5.28;;;15.70;99.90;;;16.45;100.00;97288.16;5186333;28;20292;-76
2022/08/16 00:25:00;;;;;;;6.22;5.43;;;15.70;99.90;;;16.43;100.00;97295.88;5185631;28;20227;-77
2022/08/16 00:27:33;;;;;;;5.88;5.38;;;15.70;99.90;;;16.40;100.00;97295.81;5192532;28;20202;-77
2022/08/16 00:30:14;;;;;;;6.47;5.88;;;15.60;99.90;;;16.45;100.00;97293.31;5193284;28;20669;-77
2022/08/16 00:33:03;;;;;;;5.18;4.70;;;15.70;99.90;;;16.41;100.00;97305.28;5183038;28;20636;-77
2022/08/16 00:35:38;;;;;;;6.07;5.47;;;15.60;99.90;;;16.38;100.00;97296.59;5185842;28;20252;-77
2022/08/16 00:38:11;;;;;;;6.15;5.65;;;15.60;99.90;;;16.29;100.00;97296.38;5188681;28;20201;-77
2022/08/16 00:41:04;;;;;;;5.28;4.93;;;15.50;99.90;;;16.34;100.00;97294.75;5190137;28;20610;-77
2022/08/16 00:43:39;;;;;;;5.40;5.00;;;15.60;99.90;;;16.41;100.00;97291.50;5191229;28;20665;-76
2022/08/16 00:46:22;;;;;;;5.60;5.20;;;15.60;99.90;;;16.39;100.00;97293.16;5184839;28;20222;-76
2022/08/16 00:49:12;;;;;;;5.53;5.13;;;15.60;99.90;;;16.40;100.00;97300.09;5194489;28;20301;-76
2022/08/16 00:51:52;;;;;;;5.30;4.93;;;15.60;99.90;;;16.41;100.00;97306.97;5186837;28;20209;-77
2022/08/16 00:54:30;;;;;;;6.75;6.13;;;15.60;99.90;;;16.40;100.00;97310.41;5188880;28;20269;-77
2022/08/16 00:57:06;;;;;;;5.68;5.18;;;15.60;99.90;;;16.43;100.00;97297.59;5196789;28;20288;-77
2022/08/16 00:59:43;;;;;;;6.30;5.60;;;15.60;99.90;;;16.39;100.00;97304.34;5192152;28;20202;-77
2022/08/16 01:02:31;;;;;;;5.18;4.75;;;15.60;99.90;;;16.46;100.00;97309.69;5190014;28;20205;-77
2022/08/16 01:05:08;;;;;;;5.53;5.03;;;15.50;99.90;;;16.36;100.00;97308.56;5194801;28;20219;-76
2022/08/16 01:07:44;;;;;;;5.45;4.95;;;15.40;99.90;;;16.31;100.00;97321.38;5190648;28;20312;-77
2022/08/16 01:10:29;;;;;;;5.38;4.88;;;15.40;99.90;;;16.26;100.00;97316.94;5182741;28;20632;-77
2022/08/16 01:13:09;;;;;;;5.78;5.28;;;15.40;99.90;;;16.18;100.00;97317.59;5191736;28;20256;-76
2022/08/16 01:15:52;;;;;;;5.38;4.88;;;15.40;99.90;;;16.17;100.00;97313.25;5187209;28;20210;-77
2022/08/16 01:18:32;;;;;;;5.85;5.40;;;15.40;99.90;;;16.16;100.00;97308.06;5195662;28;20201;-76
2022/08/16 01:21:31;;;;;;;5.70;5.20;;;15.40;99.90;;;16.14;100.00;97310.59;5194186;28;20864;-77
2022/08/16 01:24:19;;;;;;;5.50;5.00;;;15.30;99.90;;;16.10;100.00;97316.50;5190275;28;20223;-77
2022/08/16 01:27:17;;;;;;;5.57;5.18;;;15.30;99.90;;;16.07;100.00;97315.56;5194843;28;20236;-77
2022/08/16 01:29:57;;;;;;;5.47;5.07;;;15.30;99.90;;;16.03;100.00;97319.75;5186172;28;20293;-77
2022/08/16 01:32:37;;;;;;;5.68;5.28;;;15.20;99.90;;;15.99;100.00;97317.91;5181598;28;20286;-77
2022/08/16 01:35:18;;;;;;;5.72;5.22;;;15.20;99.90;;;15.84;100.00;97315.81;5184216;28;20214;-77
2022/08/16 01:37:55;;;;;;;5.60;5.20;;;15.10;99.90;;;15.88;100.00;97314.16;5179895;28;20199;-77
2022/08/16 01:40:30;;;;;;;5.65;5.25;;;15.10;99.90;;;15.92;100.00;97316.03;5192667;28;20229;-77
2022/08/16 01:43:07;;;;;;;5.20;4.80;;;15.10;99.90;;;15.92;100.00;97316.03;5182230;28;20626;-77
2022/08/16 01:45:42;;;;;;;5.93;5.35;;;15.10;99.90;;;16.00;100.00;97311.94;5188900;28;20587;-77
2022/08/16 01:48:15;;;;;;;5.80;5.30;;;15.10;99.90;;;16.02;100.00;97309.41;5183095;28;20197;-77
2022/08/16 01:50:53;;;;;;;6.38;5.88;;;15.20;99.90;;;16.03;100.00;97309.44;5186520;28;20748;-77
2022/08/16 01:53:46;;;;;;;5.93;5.45;;;15.20;99.90;;;16.04;100.00;97311.19;5184404;28;20230;-77
2022/08/16 01:56:30;;;;;;;6.60;6.00;;;15.30;99.90;;;16.10;100.00;97311.34;5188985;28;20297;-77
2022/08/16 01:59:10;;;;;;;6.18;5.60;;;15.30;99.90;;;16.06;100.00;97314.69;5189056;28;20249;-77
2022/08/16 02:01:51;;;;;;;5.70;5.20;;;15.20;99.90;;;16.01;100.00;97311.09;5181469;28;20206;-78
2022/08/16 02:04:34;;;;;;;6.20;5.70;;;15.20;99.90;;;16.01;100.00;97311.09;5186321;28;20223;-77
2022/08/16 02:07:26;;;;;;;5.20;4.80;;;15.20;99.90;;;15.97;100.00;97301.56;5182310;28;20288;-77
2022/08/16 02:10:05;;;;;;;6.10;5.60;;;15.20;99.90;;;15.99;100.00;97299.88;5187622;28;20206;-77
2022/08/16 02:12:40;;;;;;;6.63;6.03;;;15.20;99.90;;;15.98;100.00;97299.00;5191266;28;20276;-77
2022/08/16 02:15:32;;;;;;;6.32;5.82;;;15.20;99.90;;;15.96;100.00;97294.63;5177075;28;20222;-77
2022/08/16 02:18:14;;;;;;;6.35;5.00;;;15.10;99.90;;;15.92;100.00;97297.97;5190072;28;20194;-77
2022/08/16 02:20:53;;;;;;;6.15;5.47;;;15.10;99.90;;;15.88;100.00;97293.56;5191452;28;20198;-77
2022/08/16 02:23:26;;;;;;;5.43;5.03;;;15.00;99.90;;;15.79;100.00;97295.88;5181896;28;20594;-77
2022/08/16 02:26:02;;;;;;;5.93;5.45;;;15.00;99.90;;;15.71;100.00;97298.28;5183487;28;20233;-77
2022/08/16 02:28:37;;;;;;;5.70;5.30;;;14.90;99.90;;;15.69;100.00;97303.38;5186458;28;20234;-77
2022/08/16 02:31:17;;;;;;;6.25;5.63;;;14.90;99.90;;;15.70;100.00;97310.25;5188804;28;20303;-77
2022/08/16 02:33:50;;;;;;;10.23;9.43;;;14.90;99.90;;;15.67;100.00;97310.13;5178471;28;20218;-77
2022/08/16 02:36:24;;;;;;;10.73;9.80;;;14.80;99.90;;;15.69;100.00;97298.22;5188405;28;20245;-77
2022/08/16 02:39:18;;;;;;;8.27;7.68;;;14.80;99.90;;;15.63;100.00;97300.59;5186995;28;20222;-76
2022/08/16 02:41:55;;;;;;;6.55;5.97;;;14.80;99.90;;;15.62;100.00;97301.41;5182715;28;20244;-77
2022/08/16 02:44:30;;;;;;;6.38;5.88;;;14.80;99.90;;;15.64;100.00;97298.88;5190342;28;20399;-77
2022/08/16 02:47:04;;;;;;;6.82;6.13;;;14.80;99.90;;;15.65;100.00;97304.09;5183883;28;20405;-77
2022/08/16 02:49:37;;;;;;;6.20;5.65;;;14.90;99.90;;;15.65;100.00;97303.19;5186930;28;20280;-77
2022/08/16 02:52:30;;;;;;;6.10;5.60;;;14.90;99.90;;;15.65;100.00;97300.63;5185642;28;20547;-77
2022/08/16 02:55:06;;;;;;;5.43;4.93;;;14.90;99.90;;;15.64;100.00;97298.88;5176240;28;20231;-77
2022/08/16 02:57:40;;;;;;;5.60;5.20;;;14.80;99.90;;;15.59;100.00;97291.00;5193087;28;20915;-77
2022/08/16 03:00:27;;;;;;;5.95;5.45;;;14.70;99.90;;;15.46;100.00;97297.53;5186130;28;20198;-77
2022/08/16 03:03:07;;;;;;;6.00;5.50;;;14.70;99.90;;;15.47;100.00;97291.53;5187394;28;20747;-77
2022/08/16 03:05:42;;;;;;;5.88;5.38;;;14.60;99.90;;;15.49;100.00;97289.03;5199211;28;20699;-78
2022/08/16 03:08:23;;;;;;;6.22;5.75;;;14.60;99.90;;;15.49;100.00;97286.44;5193372;28;20650;-78
2022/08/16 03:11:18;;;;;;;5.90;5.45;;;14.70;99.90;;;15.49;100.00;97289.03;5188602;28;20217;-78
2022/08/16 03:13:55;;;;;;;6.50;5.90;;;14.70;99.90;;;15.53;100.00;97293.41;5190555;28;20224;-77
2022/08/16 03:16:30;;;;;;;5.85;5.35;;;14.70;99.90;;;15.53;100.00;97293.41;5177780;28;20272;-78
2022/08/16 03:19:14;;;;;;;5.57;5.18;;;14.70;99.90;;;15.48;100.00;97284.69;5194568;28;20213;-78
2022/08/16 03:21:47;;;;;;;5.75;5.28;;;14.70;99.90;;;15.53;100.00;97285.69;5180291;28;20288;-78
2022/08/16 03:24:24;;;;;;;6.72;6.13;;;14.70;99.90;;;15.58;100.00;97281.56;5195507;28;20221;-78
2022/08/16 03:27:02;;;;;;;6.03;5.53;;;14.80;99.90;;;15.55;100.00;97279.75;5187865;28;20609;-77
2022/08/16 03:29:38;;;;;;;5.95;5.45;;;14.80;99.90;;;15.52;100.00;97274.53;5191726;28;20225;-78
2022/08/16 03:32:27;;;;;;;5.90;5.47;;;14.70;99.90;;;15.55;100.00;97273.75;5180889;28;20341;-78
2022/08/16 03:35:00;;;;;;;6.72;6.05;;;14.70;99.90;;;15.53;100.00;97278.84;5184283;28;20287;-78
2022/08/16 03:37:34;;;;;;;5.70;5.30;;;14.70;99.90;;;15.44;100.00;97280.28;5196627;28;20624;-78
2022/08/16 03:40:28;;;;;;;5.75;5.30;;;14.60;99.90;;;15.42;100.00;97280.22;5196682;28;20208;-77
2022/08/16 03:43:08;;;;;;;5.55;5.10;;;14.50;99.90;;;15.35;100.00;97274.88;5188619;28;20315;-78
2022/08/16 03:45:56;;;;;;;6.53;5.97;;;14.50;99.90;;;15.35;100.00;97269.72;5188077;28;20611;-79
2022/08/16 03:48:35;;;;;;;6.57;6.07;;;14.50;99.90;;;15.35;100.00;97268.03;5188496;28;20250;-78
2022/08/16 03:51:13;;;;;;;6.18;5.68;;;14.50;99.90;;;15.38;100.00;97272.38;5194412;28;20202;-81
2022/08/16 03:53:46;;;;;;;8.18;5.65;;;14.60;99.90;;;15.36;100.00;97269.75;5197078;28;20249;-78
2022/08/16 03:56:33;;;;;;;6.60;5.90;;;14.50;99.90;;;15.36;100.00;97261.16;5186727;28;20245;-79
2022/08/16 03:59:09;;;;;;;5.88;5.47;;;14.50;99.90;;;15.30;100.00;97267.00;5187290;28;20213;-79
2022/08/16 04:01:42;;;;;;;5.28;4.88;;;14.40;99.90;;;15.26;100.00;97268.63;5182609;28;20271;-78
2022/08/16 04:04:17;;;;;;;6.13;5.55;;;14.50;99.90;;;15.24;100.00;97272.84;5183835;28;20223;-77
2022/08/16 04:07:07;;;;;;;6.10;5.60;;;14.40;99.90;;;15.26;100.00;97268.63;5198440;28;20206;-78
2022/08/16 04:09:40;;;;;;;6.20;5.70;;;14.40;99.90;;;15.19;100.00;97273.53;5196123;28;20251;-79
2022/08/16 04:12:14;;;;;;;6.38;5.88;;;14.30;99.90;;;15.16;100.00;97279.47;5189908;28;20207;-79
2022/08/16 04:15:11;;;;;;;6.53;6.03;;;14.30;99.90;;;15.16;100.00;97281.19;5192062;28;20284;-78
2022/08/16 04:17:48;;;;;;;6.30;5.68;;;14.40;99.90;;;15.16;100.00;97270.88;5188343;28;20201;-78
2022/08/16 04:20:24;;;;;;;6.47;5.63;;;14.40;99.90;;;15.12;100.00;97271.63;5184258;28;20725;-78
2022/08/16 04:23:07;;;;;;;6.00;5.60;;;14.40;99.90;;;15.15;100.00;97274.28;5181873;28;20257;-77
2022/08/16 04:25:40;;;;;;;6.85;6.20;;;14.40;99.90;;;15.11;100.00;97278.50;5191831;28;20225;-81
2022/08/16 04:28:19;;;;;;;6.88;6.38;;;14.30;99.90;;;15.15;100.00;97280.31;5189055;28;20226;-77
2022/08/16 04:31:12;;;;;;;6.25;5.72;;;14.40;99.90;;;15.26;100.00;97275.50;5186661;28;20253;-78
2022/08/16 04:33:46;;;;;;;6.68;6.13;;;14.40;99.90;;;15.22;100.00;97278.78;5182720;28;20236;-77
2022/08/16 04:36:25;;;;;;;7.10;6.40;;;14.40;99.90;;;15.23;100.00;97286.56;5187532;28;20198;-77
2022/08/16 04:38:58;;;;;;;6.72;6.13;;;14.40;99.90;;;15.22;100.00;97287.41;5186976;28;20198;-77
2022/08/16 04:41:32;;;;;;;6.85;6.35;;;14.50;99.90;;;15.25;100.00;97287.50;5192167;28;20222;-78
2022/08/16 04:44:10;;;;;;;6.32;5.82;;;14.40;99.90;;;15.28;100.00;97294.41;5190112;28;20222;-78
2022/08/16 04:47:03;;;;;;;6.40;5.80;;;14.40;99.90;;;15.31;100.00;97300.53;5181159;28;20205;-76
2022/08/16 04:49:56;;;;;;;6.40;6.00;;;14.50;99.90;;;15.41;100.00;97313.69;5181759;28;20209;-76
2022/08/16 04:52:31;;;;;;;6.93;6.32;;;14.60;99.90;;;15.44;100.00;97306.03;5187347;28;20234;-77
2022/08/16 04:55:20;;;;;;;7.30;6.68;;;14.60;99.90;;;15.36;100.00;97318.69;5186356;28;20312;-77
2022/08/16 04:58:04;;;;;;;6.22;5.82;;;14.60;99.90;;;15.44;100.00;97311.19;5183364;28;20224;-77
2022/08/16 05:00:58;;;;;;;7.13;6.53;;;14.70;99.90;;;15.53;100.00;97316.59;5182858;28;20195;-77
2022/08/16 05:03:31;;;;;;;7.28;6.65;;;14.70;99.90;;;15.60;100.00;97317.69;5177938;28;20227;-77
2022/08/16 05:06:05;;;;;;;7.15;6.55;;;14.80;99.90;;;15.65;100.00;97309.25;5185097;28;20199;-77
2022/08/16 05:08:42;;;;;;;6.60;6.10;;;14.90;99.90;;;15.71;100.00;97312.03;5189612;28;20704;-77
2022/08/16 05:11:21;;;;;;;7.15;5.97;;;14.90;99.90;;;15.66;100.00;97323.00;5182260;28;20229;-76
2022/08/16 05:13:54;;;;;;;7.00;6.50;;;14.90;99.90;;;15.73;100.00;97320.66;5189648;28;20214;-76
2022/08/16 05:16:39;;;;;;;6.28;5.78;;;14.90;99.90;;;15.82;100.00;97319.16;5190939;28;20237;-77
2022/08/16 05:19:12;;;;;;;6.43;5.93;;;15.00;99.90;;;15.78;98.78;97320.78;5191560;28;20552;-77
2022/08/16 05:21:48;;;;;;;6.50;6.00;;;15.00;99.90;;;15.83;98.82;97326.94;5187923;28;20201;-77
2022/08/16 05:24:24;;;;;;;6.25;5.75;;;14.90;99.90;;;15.93;99.13;97333.22;5188515;28;20333;-77
2022/08/16 05:26:58;;;;;;;6.78;6.28;;;15.00;99.90;;;16.11;99.25;97328.56;5186345;28;20205;-77
2022/08/16 05:29:43;;;;;;;6.65;6.15;;;15.20;99.90;;;16.44;97.79;97335.44;5192247;28;20256;-77
2022/08/16 05:32:34;;;;;;;7.93;7.38;;;15.40;99.90;;;16.97;96.39;97325.59;5181701;28;20286;-76
2022/08/16 05:35:18;;;;;;;7.13;6.53;;;16.00;99.90;;;17.63;94.30;97323.59;5177707;28;20227;-77
2022/08/16 05:37:56;;;;;;;6.88;6.28;;;16.70;99.90;;;18.37;91.73;97336.22;5187431;28;20247;-77
2022/08/16 05:40:31;;;;;;;6.53;6.03;;;17.50;99.90;;;18.87;85.97;97328.50;5183090;28;20210;-77
2022/08/16 05:43:04;;;;;;;6.80;6.30;;;17.90;99.90;;;19.33;82.10;97330.03;5189536;28;20230;-78
2022/08/16 05:45:44;;;;;;;5.60;5.18;;;18.20;99.90;;;19.75;79.68;97328.91;5184572;28;20201;-77
2022/08/16 05:48:22;;;;;;;5.53;5.13;;;18.60;99.90;;;20.22;78.21;97325.97;5183496;28;20228;-77
2022/08/16 05:50:59;;;;;;;6.32;5.82;;;19.00;99.90;;;20.55;75.45;97322.00;5180452;28;20206;-77
2022/08/16 05:53:33;;;;;;;5.80;5.30;;;19.00;99.90;;;20.80;74.77;97317.00;5179468;28;20291;-75
2022/08/16 05:56:12;;;;;;;6.40;5.90;;;19.10;99.90;;;20.69;73.82;97314.34;5183303;28;20234;-75
2022/08/16 05:58:51;;;;;;;5.65;5.25;;;19.00;99.90;;;20.54;74.51;97325.44;5183983;28;20669;-74
2022/08/16 06:01:24;;;;;;;5.97;5.43;;;18.90;99.90;;;20.24;76.57;97329.44;5180400;28;20203;-74
2022/08/16 06:03:57;;;;;;;5.90;5.35;;;18.60;99.90;;;19.93;78.01;97324.78;5183060;28;20230;-75
2022/08/16 06:06:31;;;;;;;6.05;5.65;;;18.40;99.90;;;19.67;80.09;97327.94;5177152;28;20655;-74
2022/08/16 06:09:05;;;;;;;6.38;5.88;;;18.10;99.90;;;19.52;81.30;97332.91;5188819;28;20224;-74
2022/08/16 06:11:42;;;;;;;6.78;6.00;;;18.10;99.90;;;19.23;82.23;97330.78;5178234;28;20310;-74
2022/08/16 06:14:16;;;;;;;6.75;6.22;;;17.80;99.90;;;19.25;83.00;97330.78;5184102;28;20247;-75
2022/08/16 06:16:49;;;;;;;7.18;6.47;;;17.90;99.90;;;19.21;81.72;97329.88;5187229;28;20198;-74
2022/08/16 06:19:23;;;;;;;6.45;5.95;;;17.80;99.90;;;19.30;81.78;97330.00;5180286;28;20413;-74
2022/08/16 06:21:56;;;;;;;6.65;5.97;;;17.80;99.90;;;19.51;80.76;97329.41;5182052;28;20219;-74
2022/08/16 06:24:29;;;;;;;6.85;6.25;;;17.90;99.90;;;19.40;80.89;97327.53;5186693;28;20775;-74
2022/08/16 06:27:24;;;;;;;6.72;6.22;;;17.90;99.90;;;19.56;81.64;97334.66;5184240;28;20206;-74
2022/08/16 06:30:13;;;;;;;6.32;5.72;;;18.20;99.90;;;19.97;79.99;97326.53;5181449;28;20309;-74
2022/08/16 06:32:51;;;;;;;6.20;5.70;;;18.40;99.90;;;20.40;79.42;97334.78;5187462;28;20680;-74
2022/08/16 06:35:27;;;;;;;6.38;5.88;;;18.90;99.90;;;20.85;76.23;97325.69;5191367;28;20792;-74
2022/08/16 06:38:13;;;;;;;7.85;7.05;;;19.20;99.90;;;21.52;72.87;97327.94;5186941;28;20238;-75
2022/08/16 06:41:08;;;;;;;6.82;6.22;;;20.00;99.90;;;21.96;70.61;97333.31;5181334;28;20207;-75
2022/08/16 06:43:47;;;;;;;6.40;5.90;;;20.30;99.90;;;22.45;69.20;97319.56;5180691;28;20229;-76
2022/08/16 06:46:26;;;;;;;6.88;6.38;;;20.60;99.90;;;22.76;66.69;97324.81;5181840;28;20750;-75
2022/08/16 06:49:06;;;;;;;6.72;6.05;;;20.90;99.90;;;23.15;67.61;97319.59;5184098;28;20296;-76
2022/08/16 06:51:43;;;;;;;6.80;6.30;;;21.10;99.90;;;23.34;66.74;97320.41;5180251;28;20210;-76
2022/08/16 06:54:18;;;;;;;7.30;6.13;;;21.50;99.90;;;23.76;65.64;97313.38;5187282;28;20303;-74
2022/08/16 06:56:51;;;;;;;6.00;5.40;;;22.00;99.90;;;24.28;64.43;97307.03;5185968;28;20260;-74
2022/08/16 06:59:28;;;;;;;6.43;5.90;;;22.50;99.90;;;24.59;62.21;97307.72;5187361;28;20309;-77
2022/08/16 07:02:21;;;;;;;5.57;5.18;;;22.80;99.90;;;24.69;62.08;97321.56;5179390;28;20649;-76
2022/08/16 07:05:07;;;;;;;5.82;5.32;;;22.90;99.90;;;25.22;60.53;97322.03;5188698;28;20226;-76
2022/08/16 07:07:51;;;;;;;5.57;5.18;;;23.20;99.90;;;25.17;60.47;97322.94;5187229;28;20300;-75
2022/08/16 07:10:27;;;;;;;5.38;5.03;;;23.10;99.90;;;25.65;58.91;97329.44;5184448;28;20226;-74
2022/08/16 07:13:01;;;;;;;6.15;5.25;;;23.60;99.90;;;26.00;58.41;97327.28;5189279;28;20740;-74
2022/08/16 07:15:45;;;;;;;6.05;5.55;;;23.80;99.90;;;25.77;57.97;97324.03;5186902;28;20202;-75
2022/08/16 07:18:23;;;;;;;5.97;5.47;;;23.50;99.90;;;25.19;59.33;97325.53;5179542;28;20198;-74
2022/08/16 07:20:58;;;;;;;6.22;5.72;;;23.40;99.90;;;25.65;59.17;97334.66;5191698;28;20206;-75
2022/08/16 07:23:34;;;;;;;5.95;5.45;;;23.30;99.90;;;26.17;58.09;97337.53;5190896;28;20268;-75
2022/08/16 07:26:16;;;;;;;6.03;5.53;;;23.70;99.90;;;26.54;56.54;97333.56;5181139;28;20583;-75
2022/08/16 07:28:57;;;;;;;6.03;5.45;;;24.00;99.90;;;26.83;54.64;97331.34;5186640;28;20649;-75
2022/08/16 07:31:32;;;;;;;6.32;5.82;;;24.10;99.90;;;26.98;54.55;97330.22;5182894;28;20712;-75
2022/08/16 07:34:10;;;;;;;6.13;5.60;;;24.30;99.90;;;27.49;54.56;97332.00;5187300;28;20221;-76
2022/08/16 07:36:44;;;;;;;5.68;5.18;;;24.60;99.90;;;27.58;54.85;97332.66;5187312;28;20767;-75
2022/08/16 07:39:29;;;;;;;6.00;5.50;;;24.90;99.90;;;27.91;53.86;97326.81;5187622;28;20206;-75
2022/08/16 07:42:06;;;;;;;5.88;5.38;;;24.90;99.90;;;27.62;53.36;97326.47;5184081;28;20201;-76
2022/08/16 07:44:39;;;;;;;5.43;4.97;;;24.90;99.90;;;28.17;53.80;97327.13;5183696;28;20705;-75
2022/08/16 07:47:24;;;;;;;5.68;5.30;;;25.10;99.90;;;28.41;51.93;97319.59;5187885;28;20253;-76
2022/08/16 07:50:05;;;;;;;5.57;5.18;;;25.60;99.90;;;28.69;51.27;97320.72;5187110;28;20228;-75
2022/08/16 07:52:40;;;;;;;6.00;5.45;;;25.70;99.90;;;28.50;51.81;97322.94;5182972;28;20735;-75
2022/08/16 07:55:16;;;;;;;5.93;5.53;;;25.70;99.90;;;28.10;52.51;97333.44;5186293;28;22133;-76
2022/08/16 07:57:50;;;;;;;5.93;5.43;;;25.60;99.90;;;27.77;53.50;97321.81;5189785;28;20214;-75
2022/08/16 08:00:36;;;;;;;5.93;5.43;;;25.80;99.90;;;27.78;51.88;97329.66;5180783;28;20321;-75
2022/08/16 08:03:11;;;;;;;4.88;4.55;;;25.70;99.00;;;27.81;51.90;97327.03;5187467;28;20208;-77
2022/08/16 08:05:47;;;;;;;5.30;4.93;;;25.90;98.20;;;27.83;50.95;97330.47;5184362;28;20201;-76
2022/08/16 08:08:20;;;;;;;5.40;5.00;;;26.20;97.10;;;27.96;50.67;97343.38;5192326;28;20229;-76
2022/08/16 08:11:13;;;;;;;5.70;4.65;;;26.30;96.10;;;27.88;49.94;97342.66;5188510;28;20615;-76
2022/08/16 08:13:51;;;;;;;5.22;4.72;;;26.40;95.40;;;27.93;48.67;97335.53;5186901;28;20228;-74
2022/08/16 08:16:26;;;;;;;5.20;4.78;;;26.60;94.70;;;27.91;50.40;97340.81;5187909;28;20263;-74
2022/08/16 08:19:11;;;;;;;5.65;5.15;;;26.50;94.70;;;28.19;48.58;97335.00;5190504;28;20237;-75
2022/08/16 08:21:44;;;;;;;5.50;5.07;;;26.80;93.90;;;28.06;49.98;97344.91;5187877;28;20241;-75
2022/08/16 08:24:33;;;;;;;5.68;5.20;;;26.90;94.50;;;28.43;47.32;97339.72;5185263;28;20711;-75
2022/08/16 08:27:10;;;;;;;5.93;5.43;;;27.30;92.80;;;28.43;47.32;97342.38;5182708;28;20229;-75
2022/08/16 08:29:43;;;;;;;5.65;4.97;;;27.40;92.10;;;28.28;48.44;97348.78;5183115;28;20221;-75
2022/08/16 08:32:36;;;;;;;5.60;5.10;;;27.20;93.50;;;28.34;48.78;97342.53;5186598;28;20569;-75
2022/08/16 08:35:31;;;;;;;6.15;5.50;;;27.20;93.10;;;28.43;48.58;97349.38;5191120;28;20222;-75
2022/08/16 08:38:06;;;;;;;6.35;5.25;;;27.30;92.70;;;28.61;48.42;97354.22;5183426;28;20554;-75
2022/08/16 08:40:40;;;;;;;7.28;5.15;;;27.40;92.60;;;28.77;46.02;97356.50;5186265;28;20201;-75
2022/08/16 08:43:13;;;;;;;5.55;5.03;;;27.70;91.00;;;28.63;45.76;97357.69;5186915;28;20213;-75
2022/08/16 08:45:53;;;;;;;7.30;5.07;;;27.40;90.10;;;28.62;45.38;97347.22;5190117;28;20800;-75
2022/08/16 08:48:27;;;;;;;5.05;4.63;;;27.40;90.40;;;28.64;44.28;97351.50;5189404;28;20620;-74
2022/08/16 08:51:10;;;;;;;5.32;4.80;;;27.60;89.00;;;28.84;44.88;97356.31;5184688;28;20257;-74
2022/08/16 08:53:44;;;;;;;5.32;4.93;;;27.80;88.70;;;28.82;44.69;97352.00;5189127;28;20295;-74
2022/08/16 08:56:17;;;;;;;5.65;5.15;;;27.90;88.50;;;28.77;44.61;97354.75;5182937;28;20281;-76
2022/08/16 08:58:57;;;;;;;5.90;5.20;;;27.70;90.00;;;28.87;46.55;97365.91;5192026;28;20190;-75
2022/08/16 09:01:38;;;;;;;5.82;5.25;;;27.90;90.20;;;28.91;44.76;97367.56;5187540;28;20206;-75
2022/08/16 09:04:30;;;;;;;5.30;4.80;;;28.00;86.90;;;28.95;45.77;97369.22;5197368;28;20235;-74
2022/08/16 09:07:04;;;;;;;5.45;4.95;;;28.00;88.10;;;29.09;45.05;97376.81;5189258;28;20225;-73
2022/08/16 09:09:38;;;;;;;5.00;4.60;;;28.20;88.20;;;29.06;44.38;97366.34;5188626;28;20239;-74
2022/08/16 09:12:13;;;;;;;5.75;5.18;;;28.20;86.90;;;29.08;45.01;97365.44;5187282;28;20193;-74
2022/08/16 09:15:09;;;;;;;5.10;4.70;;;28.40;87.30;;;29.32;42.86;97373.59;5184761;28;20230;-74
2022/08/16 09:17:45;;;;;;;5.35;4.95;;;28.50;84.00;;;29.37;42.34;97363.81;5185592;28;20649;-75
2022/08/16 09:20:26;;;;;;;5.30;4.85;;;28.40;84.00;;;28.78;43.25;97360.84;5183118;28;20205;-75
2022/08/16 09:23:01;;;;;;;5.40;4.90;;;27.90;85.00;;;29.26;44.97;97364.09;5182732;28;20205;-74
2022/08/16 09:25:35;;;;;;;4.63;4.32;;;28.30;87.50;;;29.34;43.43;97366.53;5188991;28;20202;-75
2022/08/16 09:28:08;;;;;;;5.05;4.60;;;28.50;84.40;;;29.39;43.19;97372.56;5183875;28;20375;-75
2022/08/16 09:30:43;;;;;;;5.20;4.80;;;28.70;83.60;;;29.42;41.88;97364.56;5183697;28;20228;-75
2022/08/16 09:33:18;;;;;;;5.38;4.95;;;28.50;82.60;;;29.36;41.67;97362.06;5181379;28;20580;-75
2022/08/16 09:35:54;;;;;;;5.28;4.40;;;28.50;81.50;;;29.41;41.57;97368.94;5184252;28;20228;-76
2022/08/16 09:38:29;;;;;;;4.97;4.57;;;28.50;82.00;;;29.38;41.00;97365.53;5182870;28;20398;-75
2022/08/16 09:41:09;;;;;;;4.88;4.55;;;28.40;80.90;;;29.23;40.62;97363.31;5183958;28;20202;-75
2022/08/16 09:43:47;;;;;;;4.63;4.25;;;28.10;81.10;;;29.18;42.46;97361.63;5178300;28;20226;-75
2022/08/16 09:46:33;;;;;;;4.88;4.47;;;28.30;82.00;;;29.37;40.56;97359.41;5184473;28;20201;-76
2022/08/16 09:49:25;;;;;;;5.47;4.97;;;28.60;79.40;;;29.34;41.34;97362.13;5182134;28;20207;-75
2022/08/16 09:52:10;;;;;;;6.00;5.40;;;28.50;80.50;;;29.00;42.11;97348.91;5181619;28;20320;-75
2022/08/16 09:54:45;;;;;;;5.20;4.72;;;28.20;81.10;;;29.00;40.79;97342.78;5188870;28;20261;-75
2022/08/16 09:57:18;;;;;;;5.72;4.70;;;28.20;79.10;;;28.89;41.15;97346.53;5186273;28;20279;-75
2022/08/16 09:59:54;;;;;;;5.30;4.90;;;28.10;79.10;;;29.10;41.35;97339.94;5187273;28;20205;-75
2022/08/16 10:02:29;;;;;;;5.10;4.70;;;28.30;81.00;;;29.15;42.03;97338.03;5177935;28;20202;-75
2022/08/16 10:05:04;;;;;;;5.28;4.80;;;28.30;80.60;;;29.02;41.47;97339.22;5187690;28;20225;-75
2022/08/16 10:07:38;;;;;;;5.55;5.07;;;28.30;79.80;;;29.13;40.91;97341.59;5180243;28;20205;-75
2022/08/16 10:10:30;;;;;;;6.15;5.18;;;28.20;79.40;;;28.92;41.54;97335.94;5186314;28;20222;-76
2022/08/16 10:13:11;;;;;;;5.63;5.13;;;28.20;80.20;;;28.95;42.26;97335.84;5181851;28;20201;-76
2022/08/16 10:15:51;;;;;;;5.38;4.88;;;28.10;81.30;;;29.10;41.55;97347.84;5186200;28;20252;-76
2022/08/16 10:18:30;;;;;;;5.45;5.00;;;28.40;80.60;;;29.21;41.88;97346.69;5183031;28;20220;-77
2022/08/16 10:21:23;;;;;;;5.60;5.20;;;28.50;80.80;;;29.00;42.37;97341.03;5182605;28;20214;-77
2022/08/16 10:24:02;;;;;;;5.50;5.10;;;28.40;80.70;;;29.08;41.79;97344.38;5181198;28;20229;-76
2022/08/16 10:26:37;;;;;;;5.28;4.82;;;28.30;80.30;;;29.34;41.55;97345.47;5179237;28;20208;-77
2022/08/16 10:29:30;;;;;;;5.57;5.18;;;28.60;79.80;;;29.26;40.28;97348.28;5183378;28;20200;-76
2022/08/16 10:32:24;;;;;;;5.35;4.95;;;28.50;78.30;;;29.24;40.31;97343.97;5182600;28;20700;-76
2022/08/16 10:35:03;;;;;;;5.07;4.68;;;28.50;77.50;;;29.08;39.60;97339.09;5186328;28;20268;-77
2022/08/16 10:37:36;;;;;;;5.13;4.55;;;28.30;76.60;;;29.07;38.84;97342.63;5187104;28;20203;-77
2022/08/16 10:40:13;;;;;;;4.95;4.57;;;28.20;75.70;;;29.04;38.40;97342.69;5180543;28;20205;-77
2022/08/16 10:43:03;;;;;;;4.50;4.20;;;28.30;75.30;;;28.93;39.07;97349.97;5183657;28;20210;-77
2022/08/16 10:45:40;;;;;;;4.20;3.90;;;28.10;75.00;;;28.87;38.28;97345.75;5183788;28;20552;-77
2022/08/16 10:48:29;;;;;;;5.07;4.75;;;28.00;74.50;;;28.90;38.36;97339.50;5184288;28;20202;-77
2022/08/16 10:51:04;;;;;;;4.60;4.10;;;28.20;74.80;;;28.96;39.20;97339.38;5182975;28;20221;-76
2022/08/16 10:53:38;;;;;;;4.70;4.25;;;28.20;75.10;;;28.97;38.32;97341.09;5181741;28;20727;-77
2022/08/16 10:56:13;;;;;;;4.53;4.13;;;28.10;74.20;;;29.08;38.26;97354.91;5185414;28;20229;-76
2022/08/16 10:59:07;;;;;;;4.50;4.10;;;28.20;74.20;;;29.35;36.39;97358.56;5182958;28;20683;-76
2022/08/16 11:02:01;;;;;;;4.03;3.72;;;28.30;71.90;;;29.22;37.45;97351.03;5178257;28;20206;-76
2022/08/16 11:04:54;;;;;;;4.20;3.80;;;28.20;72.80;;;29.18;37.78;97351.09;5182907;28;20722;-76
2022/08/16 11:07:46;;;;;;;4.82;4.13;;;28.10;73.20;;;29.58;35.90;97346.56;5188078;28;20645;-76